KWST/WST METAR and TAF weather

Enter ICAO airport designator
Station Type Date Time Source
KWST METAR 2020/08/14 16:53 UTC NOAA

KWST 141653Z AUTO 14007KT 10SM FEW060 28/19 A3003 RMK AO2 SLP168 T02830189 $


Station Type Date Time Source
KWST Decoded METAR 2020/08/14 16:53 UTC NOAA

WESTERLY STATE AIRPORT, RI, United States (KWST) 41-21N 071-48W 21M
Aug 14, 2020 - 12:53 PM EDT / 2020.08.14 1653 UTC
Wind: from the SE (140 degrees) at 8 MPH (7 KT):0
Visibility: 10 mile(s):0
Sky conditions: mostly clear
Temperature: 82.9 F (28.3 C)
Dew Point: 66.0 F (18.9 C)
Relative Humidity: 56%
Pressure (altimeter): 30.03 in. Hg (1016 hPa)
ob: KWST 141653Z AUTO 14007KT 10SM FEW060 28/19 A3003 RMK AO2 SLP168 T02830189
cycle: 17

Station Type Date Time Source
KWST TAF UTC NOAA

Error!

Example: see airport list